createdAt,value
2022-12-08T00:00:35.098Z,13.87
2022-12-08T00:03:04.116Z,13.27
2022-12-08T00:05:51.096Z,17.87
2022-12-08T00:08:37.714Z,15.07
2022-12-08T00:11:09.024Z,12.30
2022-12-08T00:13:38.594Z,13.10
2022-12-08T00:16:08.033Z,16.83
2022-12-08T00:18:38.064Z,15.53
2022-12-08T00:21:07.251Z,13.20
2022-12-08T00:23:36.697Z,15.03
2022-12-08T00:26:05.712Z,14.87
2022-12-08T00:28:36.305Z,19.73
2022-12-08T00:31:11.269Z,21.70
2022-12-08T00:33:40.399Z,12.80
2022-12-08T00:36:09.729Z,15.20
2022-12-08T00:38:39.394Z,15.50
2022-12-08T00:41:09.809Z,12.50
2022-12-08T00:43:41.903Z,18.07
2022-12-08T00:46:12.272Z,15.07
2022-12-08T00:48:41.517Z,10.67
2022-12-08T00:51:10.494Z,16.73
2022-12-08T00:53:39.526Z,12.30
2022-12-08T00:56:08.904Z,15.60
2022-12-08T00:58:37.687Z,13.77
2022-12-08T01:01:15.220Z,14.93
2022-12-08T01:03:47.247Z,14.93
2022-12-08T01:06:16.101Z,13.60
2022-12-08T01:08:45.548Z,20.90
2022-12-08T01:11:17.456Z,18.13
2022-12-08T01:13:46.682Z,15.47
2022-12-08T01:16:23.827Z,13.63
2022-12-08T01:18:53.589Z,20.47
2022-12-08T01:21:23.350Z,16.27
2022-12-08T01:23:53.117Z,17.67
2022-12-08T01:26:22.562Z,20.47
2022-12-08T01:28:52.992Z,19.70
2022-12-08T01:31:24.852Z,15.10
2022-12-08T01:33:54.198Z,21.30
2022-12-08T01:36:24.515Z,12.93
2022-12-08T01:38:54.422Z,21.07
2022-12-08T01:41:27.186Z,18.23
2022-12-08T01:44:00.588Z,15.10
2022-12-08T01:46:33.066Z,17.17
2022-12-08T01:49:04.659Z,16.70
2022-12-08T01:51:42.425Z,15.63
2022-12-08T01:54:12.438Z,17.33
2022-12-08T01:56:48.284Z,15.73
2022-12-08T01:59:18.995Z,16.00
2022-12-08T02:01:57.075Z,18.03
2022-12-08T02:04:26.846Z,16.40
2022-12-08T02:06:56.230Z,15.67
2022-12-08T02:09:25.489Z,11.57
2022-12-08T02:11:58.688Z,15.53
2022-12-08T02:14:27.921Z,14.00
2022-12-08T02:17:06.095Z,12.33
2022-12-08T02:19:56.747Z,13.93
2022-12-08T02:22:28.743Z,12.97
2022-12-08T02:25:01.600Z,10.43
2022-12-08T02:27:41.742Z,14.57
2022-12-08T02:30:17.928Z,10.20
2022-12-08T02:33:04.769Z,11.40
2022-12-08T02:35:37.888Z,10.33
2022-12-08T02:38:14.678Z,7.87
2022-12-08T02:40:47.285Z,14.43
2022-12-08T02:43:19.551Z,10.03
2022-12-08T02:45:54.545Z,16.20
2022-12-08T02:48:25.990Z,7.83
2022-12-08T02:50:56.880Z,9.03
2022-12-08T02:53:26.212Z,17.67
2022-12-08T02:56:04.603Z,14.97
2022-12-08T02:58:49.296Z,17.30
2022-12-08T03:01:26.770Z,15.87
2022-12-08T03:04:04.686Z,19.20
2022-12-08T03:06:37.835Z,18.43
2022-12-08T03:09:12.839Z,17.80
2022-12-08T03:11:44.507Z,16.93
2022-12-08T03:14:17.851Z,16.93
2022-12-08T03:16:51.634Z,16.97
2022-12-08T03:19:25.073Z,13.90
2022-12-08T03:22:00.643Z,12.17
2022-12-08T03:24:29.794Z,15.77
2022-12-08T03:27:02.061Z,23.70
2022-12-08T03:29:31.789Z,15.13
2022-12-08T03:32:09.476Z,18.87
2022-12-08T03:34:39.100Z,13.47
2022-12-08T03:37:09.445Z,17.90
2022-12-08T03:39:38.467Z,18.37
2022-12-08T03:42:08.086Z,17.83
2022-12-08T03:44:37.607Z,12.43
2022-12-08T03:47:07.355Z,15.53
2022-12-08T03:49:39.022Z,17.27
2022-12-08T03:52:09.540Z,18.97
2022-12-08T03:54:38.379Z,18.03
2022-12-08T03:57:07.622Z,17.57
2022-12-08T03:59:36.474Z,16.97
2022-12-08T04:02:06.373Z,16.00
2022-12-08T04:04:35.546Z,14.77
2022-12-08T04:07:04.923Z,20.70
2022-12-08T04:09:35.605Z,11.43
2022-12-08T04:12:04.657Z,16.40
2022-12-08T04:14:33.479Z,14.23
2022-12-08T04:17:02.912Z,16.70
2022-12-08T04:19:36.001Z,18.73
2022-12-08T04:22:04.867Z,13.30
2022-12-08T04:24:35.653Z,18.60
2022-12-08T04:27:04.903Z,16.20
2022-12-08T04:29:34.250Z,16.53
2022-12-08T04:32:03.723Z,14.90
2022-12-08T04:34:33.324Z,15.93
2022-12-08T04:37:03.057Z,12.40
2022-12-08T04:39:31.826Z,15.80
2022-12-08T04:42:01.946Z,16.93
2022-12-08T04:44:30.958Z,19.67
2022-12-08T04:46:59.763Z,18.80
2022-12-08T04:49:29.259Z,25.17
2022-12-08T04:51:58.182Z,15.87
2022-12-08T04:54:28.784Z,22.97
2022-12-08T04:56:57.723Z,20.83
2022-12-08T04:59:28.518Z,14.80
2022-12-08T05:01:57.515Z,18.80
2022-12-08T05:04:27.031Z,16.90
2022-12-08T05:06:56.257Z,17.43
2022-12-08T05:09:25.021Z,17.87
2022-12-08T05:11:56.468Z,16.27
2022-12-08T05:14:25.441Z,16.87
2022-12-08T05:16:55.943Z,20.80
2022-12-08T05:19:25.157Z,19.27
2022-12-08T05:21:53.675Z,16.83
2022-12-08T05:24:22.835Z,20.67
2022-12-08T05:26:51.617Z,17.40
2022-12-08T05:29:20.487Z,19.07
2022-12-08T05:31:49.710Z,20.47
2022-12-08T05:34:19.931Z,22.03
2022-12-08T05:36:48.669Z,22.30
2022-12-08T05:39:17.918Z,21.80
2022-12-08T05:41:46.659Z,19.20
2022-12-08T05:44:15.954Z,18.03
2022-12-08T05:46:44.860Z,21.33
2022-12-08T05:49:14.119Z,19.40
2022-12-08T05:51:44.938Z,18.00
2022-12-08T05:54:14.463Z,23.67
2022-12-08T05:56:43.458Z,24.33
2022-12-08T05:59:12.689Z,24.20
2022-12-08T06:01:42.891Z,18.80
2022-12-08T06:04:12.067Z,20.07
2022-12-08T06:06:41.183Z,22.13
2022-12-08T06:09:12.727Z,21.77
2022-12-08T06:11:42.020Z,22.33
2022-12-08T06:14:12.868Z,20.47
2022-12-08T06:16:42.192Z,21.10
2022-12-08T06:19:11.867Z,19.30
2022-12-08T06:21:41.079Z,18.10
2022-12-08T06:24:12.157Z,17.67
2022-12-08T06:26:42.052Z,17.77
2022-12-08T06:29:11.673Z,21.00
2022-12-08T06:31:40.695Z,18.63
2022-12-08T06:34:09.745Z,22.80
2022-12-08T06:36:38.750Z,23.57
2022-12-08T06:39:07.770Z,17.67
2022-12-08T06:41:58.188Z,23.40
2022-12-08T06:44:27.912Z,14.03
2022-12-08T06:46:58.191Z,22.87
2022-12-08T06:49:27.618Z,26.13
2022-12-08T06:51:56.882Z,26.47
2022-12-08T06:54:26.192Z,21.17
2022-12-08T06:56:56.441Z,22.43
2022-12-08T06:59:26.352Z,28.73
2022-12-08T07:01:56.398Z,26.83
2022-12-08T07:04:25.244Z,21.67
2022-12-08T07:06:54.643Z,27.67
2022-12-08T07:09:23.861Z,28.67
2022-12-08T07:11:52.707Z,24.03
2022-12-08T07:14:25.298Z,27.20
2022-12-08T07:16:54.648Z,24.47
2022-12-08T07:19:23.706Z,25.80
2022-12-08T07:21:52.731Z,20.57
2022-12-08T07:24:21.801Z,25.57
2022-12-08T07:26:51.049Z,23.23
2022-12-08T07:29:26.047Z,16.07
2022-12-08T07:31:57.137Z,23.40
2022-12-08T07:34:26.825Z,20.53
2022-12-08T07:36:55.659Z,22.93
2022-12-08T07:39:24.597Z,20.67
2022-12-08T07:41:53.923Z,18.47
2022-12-08T07:44:23.029Z,18.73
2022-12-08T07:46:52.460Z,18.33
2022-12-08T07:49:23.581Z,20.70
2022-12-08T07:51:52.412Z,20.30
2022-12-08T07:54:21.746Z,21.30
2022-12-08T07:56:51.026Z,17.60
2022-12-08T07:59:20.064Z,22.57
2022-12-08T08:02:06.349Z,22.13
2022-12-08T08:04:40.298Z,19.53
2022-12-08T08:07:09.401Z,23.57
2022-12-08T08:09:38.341Z,23.53
2022-12-08T08:12:30.151Z,22.73
2022-12-08T08:14:57.286Z,22.83
2022-12-08T08:17:26.664Z,20.37
2022-12-08T08:19:58.847Z,17.83
2022-12-08T08:22:30.397Z,19.30
2022-12-08T08:24:59.191Z,21.03
2022-12-08T08:27:28.483Z,20.67
2022-12-08T08:29:57.356Z,27.30
2022-12-08T08:32:28.131Z,24.93
2022-12-08T08:34:58.602Z,25.10
2022-12-08T08:37:27.543Z,26.57
2022-12-08T08:39:57.146Z,24.90
2022-12-08T08:42:27.108Z,26.10
2022-12-08T08:44:56.201Z,25.70
2022-12-08T08:47:24.956Z,29.73
2022-12-08T08:49:54.348Z,19.53
2022-12-08T08:52:25.793Z,9.00
2022-12-08T08:54:54.638Z,16.87
2022-12-08T08:57:26.362Z,15.63
2022-12-08T08:59:56.391Z,15.23
2022-12-08T09:02:27.666Z,19.03
2022-12-08T09:04:56.494Z,9.77
2022-12-08T09:07:26.874Z,12.77
2022-12-08T09:10:00.048Z,15.10
2022-12-08T09:12:33.194Z,12.83
2022-12-08T09:15:02.001Z,11.77
2022-12-08T09:17:31.620Z,13.37
2022-12-08T09:20:01.680Z,12.10
2022-12-08T09:22:32.016Z,14.57
2022-12-08T09:25:01.586Z,13.20
2022-12-08T09:27:30.387Z,7.53
2022-12-08T09:29:59.316Z,13.93
2022-12-08T09:32:28.316Z,14.00
2022-12-08T09:34:57.640Z,6.77
2022-12-08T09:37:26.659Z,8.53
2022-12-08T09:39:57.486Z,7.30
2022-12-08T09:42:35.853Z,9.80
2022-12-08T09:45:06.693Z,8.93
2022-12-08T09:47:41.801Z,6.67
2022-12-08T09:50:14.966Z,6.73
2022-12-08T09:52:48.869Z,6.27
2022-12-08T09:55:25.029Z,7.37
2022-12-08T09:58:01.907Z,14.10
2022-12-08T10:00:33.325Z,9.33
2022-12-08T10:03:02.565Z,6.00
2022-12-08T10:05:38.742Z,6.67
2022-12-08T10:08:17.517Z,8.53
2022-12-08T10:10:58.627Z,9.23
2022-12-08T10:13:37.550Z,4.13
2022-12-08T10:16:29.316Z,10.03
2022-12-08T10:19:10.861Z,9.07
2022-12-08T10:21:42.232Z,4.77
2022-12-08T10:24:21.173Z,6.57
2022-12-08T10:26:51.636Z,6.93
2022-12-08T10:29:20.592Z,6.83
2022-12-08T10:31:49.863Z,8.03
2022-12-08T10:34:20.934Z,4.43
2022-12-08T10:36:52.681Z,7.97
2022-12-08T10:39:31.688Z,5.90
2022-12-08T10:42:04.937Z,5.93
2022-12-08T10:44:34.310Z,7.53
2022-12-08T10:47:14.871Z,7.43
2022-12-08T10:49:43.972Z,8.17
2022-12-08T10:52:24.545Z,6.33
2022-12-08T10:54:55.384Z,10.90
2022-12-08T10:57:25.909Z,10.57
2022-12-08T10:59:57.191Z,10.93
2022-12-08T11:02:26.232Z,8.03
2022-12-08T11:05:00.609Z,6.50
2022-12-08T11:07:30.007Z,11.37
2022-12-08T11:10:00.268Z,6.87
2022-12-08T11:12:32.585Z,9.83
2022-12-08T11:15:05.426Z,11.67
2022-12-08T11:17:42.283Z,10.27
2022-12-08T11:20:21.806Z,8.77
2022-12-08T11:22:55.285Z,8.07
2022-12-08T11:25:26.326Z,7.90
2022-12-08T11:27:59.143Z,9.80
2022-12-08T11:30:32.962Z,9.77
2022-12-08T11:33:06.018Z,19.67
2022-12-08T11:35:37.039Z,8.30
2022-12-08T11:38:21.256Z,5.60
2022-12-08T11:40:53.301Z,8.37
2022-12-08T11:43:29.151Z,7.50
2022-12-08T11:46:03.875Z,7.17
2022-12-08T11:48:37.826Z,10.30
2022-12-08T11:51:13.017Z,9.50
2022-12-08T11:53:51.493Z,10.60
2022-12-08T11:56:24.500Z,16.07
2022-12-08T11:59:00.828Z,10.17
2022-12-08T12:01:30.324Z,10.27
2022-12-08T12:04:09.440Z,6.70
2022-12-08T12:06:55.551Z,9.77
2022-12-08T12:09:37.917Z,18.40
2022-12-08T12:12:19.815Z,10.43
2022-12-08T12:15:11.959Z,5.27
2022-12-08T12:17:48.645Z,14.47
2022-12-08T12:20:23.387Z,12.50
2022-12-08T12:23:00.624Z,11.93
2022-12-08T12:25:32.423Z,10.53
2022-12-08T12:28:04.468Z,11.00
2022-12-08T12:30:58.163Z,12.47
2022-12-08T12:33:28.615Z,15.40
2022-12-08T12:35:59.628Z,11.17
2022-12-08T12:38:51.791Z,23.17
2022-12-08T12:41:28.079Z,14.33
2022-12-08T12:44:25.549Z,17.93
2022-12-08T12:46:59.572Z,22.37
2022-12-08T12:50:06.692Z,12.17
2022-12-08T12:52:47.622Z,16.53
2022-12-08T12:55:26.361Z,13.87
2022-12-08T12:57:57.340Z,14.83
2022-12-08T13:00:27.845Z,20.20
2022-12-08T13:03:00.600Z,18.80
2022-12-08T13:05:32.215Z,20.40
2022-12-08T13:08:07.012Z,27.40
2022-12-08T13:10:39.457Z,13.10
2022-12-08T13:13:19.777Z,15.27
2022-12-08T13:15:54.250Z,17.20
2022-12-08T13:18:29.061Z,14.60
2022-12-08T13:21:06.229Z,12.83
2022-12-08T13:23:50.892Z,10.87
2022-12-08T13:26:23.896Z,10.60
2022-12-08T13:29:24.971Z,14.40
2022-12-08T13:31:56.395Z,12.40
2022-12-08T13:34:36.597Z,12.93
2022-12-08T13:37:15.668Z,14.90
2022-12-08T13:39:51.296Z,15.10
2022-12-08T13:42:26.718Z,8.23
2022-12-08T13:53:10.327Z,9.63
2022-12-08T13:57:02.509Z,14.93
2022-12-08T13:59:30.221Z,11.43
2022-12-08T14:02:01.333Z,10.07
2022-12-08T14:05:16.843Z,12.17
2022-12-08T14:07:23.971Z,19.50
2022-12-08T14:09:53.563Z,21.07
2022-12-08T14:12:25.299Z,24.60
2022-12-08T14:15:12.547Z,22.57
2022-12-08T14:21:21.183Z,28.60
2022-12-08T14:24:09.828Z,26.27
2022-12-08T14:26:38.930Z,26.87
2022-12-08T14:29:10.524Z,36.17
2022-12-08T14:31:40.198Z,46.70
2022-12-08T14:34:09.527Z,40.57
2022-12-08T14:36:41.654Z,24.63
2022-12-08T14:39:16.403Z,27.83
2022-12-08T14:42:01.464Z,29.63
2022-12-08T14:44:35.109Z,28.80
2022-12-08T14:47:10.847Z,28.87
2022-12-08T14:49:43.158Z,43.17
2022-12-08T14:52:14.802Z,31.83
2022-12-08T14:54:48.144Z,65.30
2022-12-08T14:57:19.525Z,73.67
2022-12-08T14:59:50.604Z,46.70
2022-12-08T15:02:29.735Z,70.27
2022-12-08T15:05:03.329Z,64.77
2022-12-08T15:07:39.211Z,55.77
2022-12-08T15:10:23.301Z,66.73
2022-12-08T15:13:05.018Z,47.70
2022-12-08T15:15:48.702Z,44.37
2022-12-08T15:18:24.699Z,42.07
2022-12-08T15:20:57.597Z,45.10
2022-12-08T15:23:33.052Z,47.97
2022-12-08T15:26:08.117Z,52.43
2022-12-08T15:28:38.827Z,40.73
2022-12-08T15:31:11.442Z,26.30
2022-12-08T15:33:43.367Z,23.97
2022-12-08T15:36:14.231Z,23.07
2022-12-08T15:38:44.574Z,22.10
2022-12-08T15:41:15.907Z,28.20
2022-12-08T15:43:45.071Z,28.40
2022-12-08T15:46:17.076Z,26.70
2022-12-08T15:48:51.397Z,21.73
2022-12-08T15:51:25.679Z,22.83
2022-12-08T15:53:55.321Z,23.17
2022-12-08T15:56:29.795Z,26.43
2022-12-08T15:58:59.660Z,48.50
2022-12-08T16:01:29.285Z,76.43
2022-12-08T16:04:59.661Z,56.03
2022-12-08T16:07:20.879Z,66.60
2022-12-08T16:09:40.231Z,69.23
2022-12-08T16:13:13.523Z,52.57
2022-12-08T16:18:19.064Z,57.13
2022-12-08T16:23:44.265Z,39.27
2022-12-08T16:26:28.460Z,35.37
2022-12-08T16:29:08.494Z,30.67
2022-12-08T16:31:43.550Z,42.60
2022-12-08T16:34:13.726Z,44.83
2022-12-08T16:36:42.992Z,39.07
2022-12-08T16:39:16.255Z,34.87
2022-12-08T16:42:03.157Z,28.50
2022-12-08T16:44:35.445Z,26.97
2022-12-08T16:47:11.845Z,27.87
2022-12-08T16:49:43.003Z,26.20
2022-12-08T16:52:14.156Z,29.43
2022-12-08T16:54:45.957Z,25.93
2022-12-08T16:57:15.813Z,29.77
2022-12-08T16:59:46.745Z,27.40
2022-12-08T17:02:18.896Z,18.83
2022-12-08T17:04:48.882Z,34.03
2022-12-08T17:07:19.733Z,24.50
2022-12-08T17:09:56.440Z,23.70
2022-12-08T17:12:26.216Z,21.07
2022-12-08T17:15:03.970Z,24.20
2022-12-08T17:17:35.710Z,25.03
2022-12-08T17:20:06.787Z,28.27
2022-12-08T17:22:37.774Z,34.33
2022-12-08T17:25:08.485Z,27.80
2022-12-08T17:27:38.798Z,32.87
2022-12-08T17:30:15.907Z,33.40
2022-12-08T17:32:45.638Z,34.20
2022-12-08T17:35:15.578Z,38.90
2022-12-08T17:37:45.669Z,44.20
2022-12-08T17:40:15.339Z,51.13
2022-12-08T17:42:45.370Z,44.20
2022-12-08T17:45:18.476Z,48.67
2022-12-08T17:47:47.785Z,42.53
2022-12-08T17:50:17.323Z,41.30
2022-12-08T17:52:47.377Z,35.93
2022-12-08T17:55:17.012Z,43.47
2022-12-08T17:57:46.548Z,38.83
2022-12-08T18:00:22.971Z,35.83
2022-12-08T18:02:53.811Z,35.53
2022-12-08T18:05:24.674Z,39.93
2022-12-08T18:07:57.218Z,31.47
2022-12-08T18:10:29.015Z,35.60
2022-12-08T18:13:01.466Z,36.27
2022-12-08T18:15:37.477Z,34.13
2022-12-08T18:18:09.913Z,31.63
2022-12-08T18:20:39.951Z,34.57
2022-12-08T18:23:12.321Z,33.57
2022-12-08T18:25:41.970Z,31.73
2022-12-08T18:28:12.166Z,30.70
2022-12-08T18:30:43.577Z,23.80
2022-12-08T18:33:13.477Z,32.73
2022-12-08T18:35:43.099Z,34.30
2022-12-08T18:38:13.643Z,27.97
2022-12-08T18:40:45.930Z,14.77
2022-12-08T18:43:16.001Z,26.83
2022-12-08T18:45:48.320Z,25.60
2022-12-08T18:48:21.411Z,29.23
2022-12-08T18:50:51.222Z,24.13
2022-12-08T18:53:22.525Z,29.53
2022-12-08T18:55:52.658Z,16.93
2022-12-08T18:58:27.070Z,18.40
2022-12-08T19:00:58.612Z,31.00
2022-12-08T19:03:31.048Z,22.40
2022-12-08T19:06:07.075Z,20.13
2022-12-08T19:08:36.411Z,23.60
2022-12-08T19:11:08.286Z,18.37
2022-12-08T19:13:39.128Z,29.63
2022-12-08T19:16:13.280Z,10.03
2022-12-08T19:18:42.818Z,20.23
2022-12-08T19:21:13.243Z,37.67
2022-12-08T19:23:46.428Z,28.00
2022-12-08T19:26:18.295Z,13.57
2022-12-08T19:28:51.864Z,21.57
2022-12-08T19:31:23.227Z,22.17
2022-12-08T19:33:53.654Z,28.93
2022-12-08T19:36:26.598Z,26.27
2022-12-08T19:39:13.603Z,17.40
2022-12-08T19:42:00.146Z,32.97
2022-12-08T19:44:51.028Z,28.20
2022-12-08T19:47:22.602Z,25.20
2022-12-08T19:50:16.957Z,33.40
2022-12-08T19:52:47.199Z,28.13
2022-12-08T19:55:17.681Z,38.00
2022-12-08T19:57:47.479Z,30.03
2022-12-08T20:00:17.722Z,22.30
2022-12-08T20:02:49.348Z,41.40
2022-12-08T20:05:21.215Z,30.70
2022-12-08T20:07:56.590Z,26.50
2022-12-08T20:10:29.072Z,38.17
2022-12-08T20:13:19.015Z,34.13
2022-12-08T20:15:49.039Z,39.50
2022-12-08T20:18:20.457Z,28.20
2022-12-08T20:20:51.887Z,9.73
2022-12-08T20:23:21.606Z,33.67
2022-12-08T20:25:51.449Z,43.90
2022-12-08T20:28:31.551Z,40.67
2022-12-08T20:31:02.108Z,21.17
2022-12-08T20:33:33.611Z,41.17
2022-12-08T20:36:05.286Z,29.63
2022-12-08T20:38:37.341Z,45.27
2022-12-08T20:41:11.377Z,32.20
2022-12-08T20:43:44.411Z,23.30
2022-12-08T20:46:16.335Z,30.73
2022-12-08T20:48:48.485Z,33.33
2022-12-08T20:51:19.602Z,34.50
2022-12-08T20:53:50.483Z,19.43
2022-12-08T20:56:20.975Z,32.93
2022-12-08T20:58:51.766Z,21.30
2022-12-08T21:01:24.280Z,28.57
2022-12-08T21:03:58.194Z,21.10
2022-12-08T21:06:29.019Z,30.70
2022-12-08T21:08:59.508Z,16.57
2022-12-08T21:11:29.476Z,32.03
2022-12-08T21:13:59.147Z,15.93
2022-12-08T21:16:29.333Z,25.93
2022-12-08T21:19:02.046Z,30.77
2022-12-08T21:21:32.980Z,28.63
2022-12-08T21:24:03.477Z,32.13
2022-12-08T21:26:33.274Z,28.83
2022-12-08T21:29:06.095Z,25.47
2022-12-08T21:31:37.519Z,29.13
2022-12-08T21:34:10.206Z,25.60
2022-12-08T21:36:40.026Z,21.33
2022-12-08T21:39:13.345Z,32.30
2022-12-08T21:42:00.263Z,29.67
2022-12-08T21:44:32.656Z,30.57
2022-12-08T21:47:05.070Z,31.93
2022-12-08T21:49:39.110Z,33.07
2022-12-08T21:52:12.975Z,32.97
2022-12-08T21:54:42.194Z,23.87
2022-12-08T21:57:12.883Z,36.47
2022-12-08T21:59:42.222Z,33.17
2022-12-08T22:02:22.003Z,35.13
2022-12-08T22:04:55.630Z,25.73
2022-12-08T22:07:25.789Z,23.93
2022-12-08T22:09:55.687Z,34.20
2022-12-08T22:12:25.462Z,33.90
2022-12-08T22:14:55.707Z,36.93
2022-12-08T22:17:25.211Z,34.60
2022-12-08T22:19:57.225Z,38.87
2022-12-08T22:22:26.519Z,37.70
2022-12-08T22:24:56.494Z,28.33
2022-12-08T22:27:26.298Z,40.97
2022-12-08T22:29:57.166Z,40.57
2022-12-08T22:32:27.174Z,32.10
2022-12-08T22:34:58.224Z,36.40
2022-12-08T22:37:27.649Z,35.10
2022-12-08T22:39:57.244Z,35.50
2022-12-08T22:42:27.221Z,32.00
2022-12-08T22:44:56.802Z,38.07
2022-12-08T22:47:27.336Z,38.20
2022-12-08T22:49:59.038Z,35.43
2022-12-08T22:52:28.991Z,42.53
2022-12-08T22:54:58.275Z,35.57
2022-12-08T22:57:27.959Z,48.63
2022-12-08T22:59:57.272Z,38.93
2022-12-08T23:02:26.577Z,43.90
2022-12-08T23:04:59.661Z,41.63
2022-12-08T23:07:29.254Z,35.10
2022-12-08T23:09:58.584Z,42.70
2022-12-08T23:12:29.246Z,38.67
2022-12-08T23:14:58.940Z,46.40
2022-12-08T23:17:28.889Z,37.53
2022-12-08T23:19:59.766Z,38.57
2022-12-08T23:22:28.734Z,31.33
2022-12-08T23:24:57.873Z,41.53
2022-12-08T23:27:26.905Z,39.03
2022-12-08T23:29:56.336Z,30.33
2022-12-08T23:32:26.090Z,39.13
2022-12-08T23:34:56.248Z,38.13
2022-12-08T23:37:28.073Z,31.90
2022-12-08T23:39:57.732Z,36.47
2022-12-08T23:42:27.119Z,32.97
2022-12-08T23:44:56.670Z,33.97
2022-12-08T23:47:26.977Z,37.10
2022-12-08T23:49:57.772Z,34.37
2022-12-08T23:52:29.548Z,34.80
2022-12-08T23:54:59.485Z,21.50
2022-12-08T23:57:29.139Z,32.43
2022-12-08T23:59:59.396Z,33.40
